sensor_id;sensor_type;location;lat;lon;timestamp;pressure;altitude;pressure_sealevel;temperature;humidity
49044;BME280;34860;48.066;14.124;2022-12-07T00:00:22;96477.91;;;3.59;79.75
49044;BME280;34860;48.066;14.124;2022-12-07T00:03:11;96476.31;;;3.62;79.64
49044;BME280;34860;48.066;14.124;2022-12-07T00:06:00;96479.44;;;3.60;79.63
49044;BME280;34860;48.066;14.124;2022-12-07T00:08:50;96486.13;;;3.59;79.68
49044;BME280;34860;48.066;14.124;2022-12-07T00:11:39;96473.56;;;3.58;79.65
49044;BME280;34860;48.066;14.124;2022-12-07T00:14:28;96482.59;;;3.62;79.64
49044;BME280;34860;48.066;14.124;2022-12-07T00:17:16;96473.16;;;3.60;79.56
49044;BME280;34860;48.066;14.124;2022-12-07T00:20:06;96475.53;;;3.58;79.71
49044;BME280;34860;48.066;14.124;2022-12-07T00:22:55;96475.94;;;3.56;79.77
49044;BME280;34860;48.066;14.124;2022-12-07T00:25:45;96470.81;;;3.62;79.55
49044;BME280;34860;48.066;14.124;2022-12-07T00:28:36;96462.19;;;3.60;79.66
49044;BME280;34860;48.066;14.124;2022-12-07T00:31:27;96473.56;;;3.62;79.62
49044;BME280;34860;48.066;14.124;2022-12-07T00:34:17;96464.53;;;3.61;79.61
49044;BME280;34860;48.066;14.124;2022-12-07T00:37:07;96473.94;;;3.60;79.58
49044;BME280;34860;48.066;14.124;2022-12-07T00:39:55;96462.97;;;3.57;79.52
49044;BME280;34860;48.066;14.124;2022-12-07T00:42:45;96465.72;;;3.53;79.67
49044;BME280;34860;48.066;14.124;2022-12-07T00:45:34;96462.22;;;3.53;79.59
49044;BME280;34860;48.066;14.124;2022-12-07T00:48:23;96461.81;;;3.54;79.67
49044;BME280;34860;48.066;14.124;2022-12-07T00:51:14;96462.97;;;3.53;79.68
49044;BME280;34860;48.066;14.124;2022-12-07T00:54:03;96465.72;;;3.53;79.58
49044;BME280;34860;48.066;14.124;2022-12-07T00:56:52;96466.91;;;3.52;79.55
49044;BME280;34860;48.066;14.124;2022-12-07T00:59:42;96475.94;;;3.49;79.64
49044;BME280;34860;48.066;14.124;2022-12-07T01:02:30;96469.66;;;3.49;79.61
49044;BME280;34860;48.066;14.124;2022-12-07T01:05:19;96468.09;;;3.48;79.65
49044;BME280;34860;48.066;14.124;2022-12-07T01:08:08;96477.50;;;3.50;79.69
49044;BME280;34860;48.066;14.124;2022-12-07T01:10:58;96468.50;;;3.50;79.52
49044;BME280;34860;48.066;14.124;2022-12-07T01:13:50;96473.97;;;3.53;79.64
49044;BME280;34860;48.066;14.124;2022-12-07T01:16:41;96470.44;;;3.53;79.66
49044;BME280;34860;48.066;14.124;2022-12-07T01:19:31;96475.16;;;3.56;79.61
49044;BME280;34860;48.066;14.124;2022-12-07T01:22:20;96480.66;;;3.56;79.44
49044;BME280;34860;48.066;14.124;2022-12-07T01:25:10;96475.16;;;3.59;79.58
49044;BME280;34860;48.066;14.124;2022-12-07T01:27:59;96469.66;;;3.59;79.60
49044;BME280;34860;48.066;14.124;2022-12-07T01:30:55;96477.50;;;3.54;79.59
49044;BME280;34860;48.066;14.124;2022-12-07T01:33:45;96467.69;;;3.53;79.60
49044;BME280;34860;48.066;14.124;2022-12-07T01:36:35;96473.97;;;3.50;79.62
49044;BME280;34860;48.066;14.124;2022-12-07T01:39:24;96475.16;;;3.49;79.64
49044;BME280;34860;48.066;14.124;2022-12-07T01:42:14;96470.81;;;3.48;79.62
49044;BME280;34860;48.066;14.124;2022-12-07T01:48:28;96461.81;;;3.47;79.64
49044;BME280;34860;48.066;14.124;2022-12-07T01:51:21;96465.75;;;3.50;79.78
49044;BME280;34860;48.066;14.124;2022-12-07T01:54:11;96464.97;;;3.45;79.63
49044;BME280;34860;48.066;14.124;2022-12-07T01:57:01;96456.72;;;3.45;79.69
49044;BME280;34860;48.066;14.124;2022-12-07T01:59:51;96461.41;;;3.41;79.71
49044;BME280;34860;48.066;14.124;2022-12-07T02:02:45;96449.66;;;3.41;79.76
49044;BME280;34860;48.066;14.124;2022-12-07T02:05:40;96444.16;;;3.41;79.77
49044;BME280;34860;48.066;14.124;2022-12-07T02:08:31;96446.91;;;3.41;79.70
49044;BME280;34860;48.066;14.124;2022-12-07T02:11:20;96445.75;;;3.42;79.69
49044;BME280;34860;48.066;14.124;2022-12-07T02:14:09;96441.81;;;3.39;79.61
49044;BME280;34860;48.066;14.124;2022-12-07T02:17:06;96441.03;;;3.39;79.78
49044;BME280;34860;48.066;14.124;2022-12-07T02:20:13;96447.69;;;3.41;79.64
49044;BME280;34860;48.066;14.124;2022-12-07T02:23:29;96440.25;;;3.38;79.59
49044;BME280;34860;48.066;14.124;2022-12-07T02:26:55;96431.59;;;3.36;79.75
49044;BME280;34860;48.066;14.124;2022-12-07T02:29:55;96434.38;;;3.33;79.61
49044;BME280;34860;48.066;14.124;2022-12-07T02:32:53;96433.19;;;3.30;79.67
49044;BME280;34860;48.066;14.124;2022-12-07T02:35:48;96434.38;;;3.29;79.72
49044;BME280;34860;48.066;14.124;2022-12-07T02:38:43;96428.88;;;3.29;79.68
49044;BME280;34860;48.066;14.124;2022-12-07T02:41:36;96437.09;;;3.25;79.59
49044;BME280;34860;48.066;14.124;2022-12-07T02:44:27;96431.63;;;3.25;79.66
49044;BME280;34860;48.066;14.124;2022-12-07T02:47:18;96427.31;;;3.28;79.54
49044;BME280;34860;48.066;14.124;2022-12-07T02:50:09;96420.25;;;3.27;79.73
49044;BME280;34860;48.066;14.124;2022-12-07T02:52:58;96432.41;;;3.30;79.64
49044;BME280;34860;48.066;14.124;2022-12-07T02:55:47;96433.19;;;3.30;79.68
49044;BME280;34860;48.066;14.124;2022-12-07T02:58:46;96426.13;;;3.33;79.55
49044;BME280;34860;48.066;14.124;2022-12-07T03:01:42;96430.84;;;3.32;79.64
49044;BME280;34860;48.066;14.124;2022-12-07T03:04:43;96432.78;;;3.32;79.72
49044;BME280;34860;48.066;14.124;2022-12-07T03:07:38;96423.00;;;3.34;79.66
49044;BME280;34860;48.066;14.124;2022-12-07T03:10:34;96428.84;;;3.36;79.54
49044;BME280;34860;48.066;14.124;2022-12-07T03:13:27;96429.66;;;3.37;79.72
49044;BME280;34860;48.066;14.124;2022-12-07T03:16:21;96431.63;;;3.40;79.61
49044;BME280;34860;48.066;14.124;2022-12-07T03:19:14;96427.31;;;3.39;79.61
49044;BME280;34860;48.066;14.124;2022-12-07T03:22:08;96428.06;;;3.39;79.59
49044;BME280;34860;48.066;14.124;2022-12-07T03:25:01;96428.88;;;3.40;79.59
49044;BME280;34860;48.066;14.124;2022-12-07T03:27:55;96432.00;;;3.42;79.57
49044;BME280;34860;48.066;14.124;2022-12-07T03:30:48;96430.44;;;3.41;79.61
49044;BME280;34860;48.066;14.124;2022-12-07T03:33:41;96433.56;;;3.39;79.64
49044;BME280;34860;48.066;14.124;2022-12-07T03:36:39;96421.81;;;3.39;79.71
49044;BME280;34860;48.066;14.124;2022-12-07T03:39:34;96423.38;;;3.40;79.72
49044;BME280;34860;48.066;14.124;2022-12-07T03:42:25;96417.09;;;3.39;79.64
49044;BME280;34860;48.066;14.124;2022-12-07T03:45:15;96421.00;;;3.42;79.59
49044;BME280;34860;48.066;14.124;2022-12-07T03:48:07;96426.50;;;3.42;79.54
49044;BME280;34860;48.066;14.124;2022-12-07T03:51:01;96422.56;;;3.39;79.64
49044;BME280;34860;48.066;14.124;2022-12-07T03:53:59;96433.94;;;3.41;79.60
49044;BME280;34860;48.066;14.124;2022-12-07T03:56:52;96435.16;;;3.40;79.68
49044;BME280;34860;48.066;14.124;2022-12-07T03:59:43;96441.41;;;3.41;79.67
49044;BME280;34860;48.066;14.124;2022-12-07T04:02:32;96440.63;;;3.40;79.70
49044;BME280;34860;48.066;14.124;2022-12-07T04:05:21;96433.94;;;3.41;79.58
49044;BME280;34860;48.066;14.124;2022-12-07T04:08:10;96435.13;;;3.44;79.57
49044;BME280;34860;48.066;14.124;2022-12-07T04:10:59;96428.06;;;3.43;79.67
49044;BME280;34860;48.066;14.124;2022-12-07T04:13:49;96432.78;;;3.42;79.64
49044;BME280;34860;48.066;14.124;2022-12-07T04:16:57;96435.91;;;3.41;79.61
49044;BME280;34860;48.066;14.124;2022-12-07T04:19:46;96438.69;;;3.37;79.63
49044;BME280;34860;48.066;14.124;2022-12-07T04:22:35;96436.31;;;3.36;79.69
49044;BME280;34860;48.066;14.124;2022-12-07T04:25:23;96433.59;;;3.36;79.64
49044;BME280;34860;48.066;14.124;2022-12-07T04:28:12;96437.09;;;3.36;79.70
49044;BME280;34860;48.066;14.124;2022-12-07T04:31:03;96430.06;;;3.35;79.69
49044;BME280;34860;48.066;14.124;2022-12-07T04:33:51;96437.88;;;3.33;79.68
49044;BME280;34860;48.066;14.124;2022-12-07T04:36:41;96431.25;;;3.31;79.72
49044;BME280;34860;48.066;14.124;2022-12-07T04:39:31;96429.28;;;3.27;79.73
49044;BME280;34860;48.066;14.124;2022-12-07T04:42:20;96432.81;;;3.24;79.81
49044;BME280;34860;48.066;14.124;2022-12-07T04:45:09;96430.44;;;3.26;79.87
49044;BME280;34860;48.066;14.124;2022-12-07T04:47:59;96433.97;;;3.23;79.76
49044;BME280;34860;48.066;14.124;2022-12-07T04:50:48;96438.31;;;3.24;79.79
49044;BME280;34860;48.066;14.124;2022-12-07T04:53:37;96440.66;;;3.22;79.72
49044;BME280;34860;48.066;14.124;2022-12-07T04:56:26;96446.56;;;3.21;79.80
49044;BME280;34860;48.066;14.124;2022-12-07T04:59:16;96444.19;;;3.19;79.73
49044;BME280;34860;48.066;14.124;2022-12-07T05:02:05;96441.06;;;3.21;79.64
49044;BME280;34860;48.066;14.124;2022-12-07T05:04:55;96434.78;;;3.20;79.69
49044;BME280;34860;48.066;14.124;2022-12-07T05:07:44;96441.06;;;3.24;79.68
49044;BME280;34860;48.066;14.124;2022-12-07T05:10:32;96435.94;;;3.26;79.72
49044;BME280;34860;48.066;14.124;2022-12-07T05:13:21;96426.91;;;3.30;79.69
49044;BME280;34860;48.066;14.124;2022-12-07T05:16:10;96418.69;;;3.26;79.45
49044;BME280;34860;48.066;14.124;2022-12-07T05:18:59;96424.97;;;3.23;79.65
49044;BME280;34860;48.066;14.124;2022-12-07T05:21:49;96430.47;;;3.23;79.68
49044;BME280;34860;48.066;14.124;2022-12-07T05:24:38;96424.19;;;3.22;79.68
49044;BME280;34860;48.066;14.124;2022-12-07T05:27:26;96429.69;;;3.26;79.56
49044;BME280;34860;48.066;14.124;2022-12-07T05:30:15;96419.47;;;3.26;79.67
49044;BME280;34860;48.066;14.124;2022-12-07T05:33:04;96420.63;;;3.25;79.58
49044;BME280;34860;48.066;14.124;2022-12-07T05:35:53;96431.22;;;3.23;79.68
49044;BME280;34860;48.066;14.124;2022-12-07T05:38:43;96420.66;;;3.22;79.75
49044;BME280;34860;48.066;14.124;2022-12-07T05:41:32;96435.97;;;3.23;79.76
49044;BME280;34860;48.066;14.124;2022-12-07T05:44:38;96431.63;;;3.22;79.70
49044;BME280;34860;48.066;14.124;2022-12-07T05:47:27;96433.22;;;3.19;79.74
49044;BME280;34860;48.066;14.124;2022-12-07T05:50:16;96437.91;;;3.19;79.81
49044;BME280;34860;48.066;14.124;2022-12-07T05:53:19;96435.97;;;3.12;79.57
49044;BME280;34860;48.066;14.124;2022-12-07T05:56:10;96435.19;;;3.08;79.78
49044;BME280;34860;48.066;14.124;2022-12-07T05:58:59;96436.38;;;3.03;79.76
49044;BME280;34860;48.066;14.124;2022-12-07T06:02:07;96439.47;;;2.98;79.75
49044;BME280;34860;48.066;14.124;2022-12-07T06:04:56;96447.72;;;2.98;79.77
49044;BME280;34860;48.066;14.124;2022-12-07T06:07:45;96446.56;;;2.99;79.78
49044;BME280;34860;48.066;14.124;2022-12-07T06:10:34;96443.81;;;2.99;79.76
49044;BME280;34860;48.066;14.124;2022-12-07T06:13:24;96440.69;;;2.97;79.77
49044;BME280;34860;48.066;14.124;2022-12-07T06:16:11;96442.22;;;2.98;79.75
49044;BME280;34860;48.066;14.124;2022-12-07T06:19:00;96445.78;;;2.99;79.74
49044;BME280;34860;48.066;14.124;2022-12-07T06:21:49;96452.81;;;3.00;79.71
49044;BME280;34860;48.066;14.124;2022-12-07T06:24:38;96459.13;;;3.00;79.57
49044;BME280;34860;48.066;14.124;2022-12-07T06:27:27;96463.41;;;3.01;79.64
49044;BME280;34860;48.066;14.124;2022-12-07T06:30:18;96461.47;;;3.02;79.79
49044;BME280;34860;48.066;14.124;2022-12-07T06:33:06;96457.13;;;3.01;79.74
49044;BME280;34860;48.066;14.124;2022-12-07T06:35:55;96466.53;;;3.00;79.72
49044;BME280;34860;48.066;14.124;2022-12-07T06:38:44;96463.78;;;3.00;79.65
49044;BME280;34860;48.066;14.124;2022-12-07T06:41:33;96468.91;;;3.01;79.72
49044;BME280;34860;48.066;14.124;2022-12-07T06:44:22;96467.72;;;3.02;79.59
49044;BME280;34860;48.066;14.124;2022-12-07T06:47:12;96471.66;;;3.01;79.57
49044;BME280;34860;48.066;14.124;2022-12-07T06:50:21;96461.84;;;3.00;79.72
49044;BME280;34860;48.066;14.124;2022-12-07T06:53:09;96477.13;;;3.01;79.61
49044;BME280;34860;48.066;14.124;2022-12-07T06:55:58;96478.31;;;3.04;79.62
49044;BME280;34860;48.066;14.124;2022-12-07T06:58:47;96470.88;;;3.01;79.67
49044;BME280;34860;48.066;14.124;2022-12-07T07:01:36;96470.47;;;2.99;79.55
49044;BME280;34860;48.066;14.124;2022-12-07T07:04:26;96481.47;;;2.99;79.68
49044;BME280;34860;48.066;14.124;2022-12-07T07:07:16;96481.47;;;3.02;79.55
49044;BME280;34860;48.066;14.124;2022-12-07T07:10:06;96470.09;;;3.04;79.52
49044;BME280;34860;48.066;14.124;2022-12-07T07:12:55;96476.78;;;3.06;79.65
49044;BME280;34860;48.066;14.124;2022-12-07T07:15:44;96481.44;;;3.06;79.57
49044;BME280;34860;48.066;14.124;2022-12-07T07:18:33;96483.41;;;3.09;79.60
49044;BME280;34860;48.066;14.124;2022-12-07T07:21:23;96490.09;;;3.12;79.60
49044;BME280;34860;48.066;14.124;2022-12-07T07:24:11;96492.03;;;3.11;79.56
49044;BME280;34860;48.066;14.124;2022-12-07T07:27:00;96488.50;;;3.11;79.45
49044;BME280;34860;48.066;14.124;2022-12-07T07:29:49;96491.66;;;3.13;79.46
49044;BME280;34860;48.066;14.124;2022-12-07T07:32:38;96491.66;;;3.13;79.62
49044;BME280;34860;48.066;14.124;2022-12-07T07:35:28;96493.63;;;3.12;79.53
49044;BME280;34860;48.066;14.124;2022-12-07T07:38:19;96487.72;;;3.17;79.64
49044;BME280;34860;48.066;14.124;2022-12-07T07:41:08;96495.59;;;3.22;79.43
49044;BME280;34860;48.066;14.124;2022-12-07T07:43:56;96500.28;;;3.22;79.42
49044;BME280;34860;48.066;14.124;2022-12-07T07:46:45;96502.25;;;3.21;79.58
49044;BME280;34860;48.066;14.124;2022-12-07T07:49:34;96501.47;;;3.24;79.66
49044;BME280;34860;48.066;14.124;2022-12-07T07:52:23;96500.28;;;3.29;79.55
49044;BME280;34860;48.066;14.124;2022-12-07T07:55:13;96501.47;;;3.24;79.54
49044;BME280;34860;48.066;14.124;2022-12-07T07:58:02;96503.03;;;3.22;79.68
49044;BME280;34860;48.066;14.124;2022-12-07T08:00:51;96510.88;;;3.20;79.62
49044;BME280;34860;48.066;14.124;2022-12-07T08:03:40;96518.34;;;3.19;79.63
49044;BME280;34860;48.066;14.124;2022-12-07T08:06:29;96517.16;;;3.17;79.70
49044;BME280;34860;48.066;14.124;2022-12-07T08:09:18;96509.69;;;3.14;79.52
49044;BME280;34860;48.066;14.124;2022-12-07T08:12:08;96510.47;;;3.14;79.65
49044;BME280;34860;48.066;14.124;2022-12-07T08:14:57;96509.69;;;3.14;79.67
49044;BME280;34860;48.066;14.124;2022-12-07T08:17:46;96504.22;;;3.14;79.61
49044;BME280;34860;48.066;14.124;2022-12-07T08:20:36;96517.97;;;3.21;79.69
49044;BME280;34860;48.066;14.124;2022-12-07T08:23:25;96523.44;;;3.28;79.56
49044;BME280;34860;48.066;14.124;2022-12-07T08:26:18;96521.47;;;3.32;79.59
49044;BME280;34860;48.066;14.124;2022-12-07T08:29:08;96530.09;;;3.34;79.51
49044;BME280;34860;48.066;14.124;2022-12-07T08:31:57;96525.00;;;3.33;79.50
49044;BME280;34860;48.066;14.124;2022-12-07T08:34:51;96530.88;;;3.35;79.60
49044;BME280;34860;48.066;14.124;2022-12-07T08:37:40;96525.00;;;3.36;79.48
49044;BME280;34860;48.066;14.124;2022-12-07T08:40:29;96527.34;;;3.38;79.63
49044;BME280;34860;48.066;14.124;2022-12-07T08:43:18;96530.13;;;3.45;79.78
49044;BME280;34860;48.066;14.124;2022-12-07T08:46:10;96531.28;;;3.48;79.57
49044;BME280;34860;48.066;14.124;2022-12-07T08:49:03;96530.50;;;3.54;79.53
49044;BME280;34860;48.066;14.124;2022-12-07T08:51:55;96525.78;;;3.58;79.50
49044;BME280;34860;48.066;14.124;2022-12-07T08:54:44;96540.31;;;3.62;79.55
49044;BME280;34860;48.066;14.124;2022-12-07T08:57:34;96533.22;;;3.69;79.49
49044;BME280;34860;48.066;14.124;2022-12-07T09:00:25;96536.72;;;3.76;79.47
49044;BME280;34860;48.066;14.124;2022-12-07T09:03:15;96531.25;;;3.80;79.46
49044;BME280;34860;48.066;14.124;2022-12-07T09:06:05;96522.19;;;3.87;79.38
49044;BME280;34860;48.066;14.124;2022-12-07T09:08:57;96540.25;;;3.95;79.45
49044;BME280;34860;48.066;14.124;2022-12-07T09:11:46;96533.56;;;3.96;79.37
49044;BME280;34860;48.066;14.124;2022-12-07T09:14:35;96527.28;;;3.95;79.47
49044;BME280;34860;48.066;14.124;2022-12-07T09:17:24;96536.72;;;3.98;79.37
49044;BME280;34860;48.066;14.124;2022-12-07T09:20:14;96533.97;;;3.98;79.45
49044;BME280;34860;48.066;14.124;2022-12-07T09:23:05;96535.13;;;3.97;79.48
49044;BME280;34860;48.066;14.124;2022-12-07T09:25:54;96544.56;;;3.96;79.49
49044;BME280;34860;48.066;14.124;2022-12-07T09:28:42;96543.00;;;3.88;79.52
49044;BME280;34860;48.066;14.124;2022-12-07T09:31:31;96539.88;;;3.82;79.57
49044;BME280;34860;48.066;14.124;2022-12-07T09:34:20;96535.16;;;3.79;79.65
49044;BME280;34860;48.066;14.124;2022-12-07T09:37:11;96536.75;;;3.80;79.76
49044;BME280;34860;48.066;14.124;2022-12-07T09:40:00;96539.47;;;3.84;79.74
49044;BME280;34860;48.066;14.124;2022-12-07T09:42:51;96532.41;;;3.79;79.52
49044;BME280;34860;48.066;14.124;2022-12-07T09:45:40;96533.19;;;3.79;79.70
49044;BME280;34860;48.066;14.124;2022-12-07T09:48:34;96529.69;;;3.79;79.54
49044;BME280;34860;48.066;14.124;2022-12-07T09:51:24;96521.03;;;3.80;79.70
49044;BME280;34860;48.066;14.124;2022-12-07T09:54:16;96517.88;;;3.82;79.69
49044;BME280;34860;48.066;14.124;2022-12-07T09:57:04;96531.22;;;3.87;79.60
49044;BME280;34860;48.066;14.124;2022-12-07T09:59:54;96511.97;;;3.87;79.46
49044;BME280;34860;48.066;14.124;2022-12-07T10:02:44;96515.50;;;3.88;79.70
49044;BME280;34860;48.066;14.124;2022-12-07T10:24:43;96503.34;;;3.85;79.51
49044;BME280;34860;48.066;14.124;2022-12-07T10:27:34;96497.47;;;3.87;79.69
49044;BME280;34860;48.066;14.124;2022-12-07T10:30:22;96484.06;;;3.92;79.53
49044;BME280;34860;48.066;14.124;2022-12-07T10:33:27;96487.63;;;3.93;79.49
49044;BME280;34860;48.066;14.124;2022-12-07T10:36:19;96480.16;;;3.93;79.60
49044;BME280;34860;48.066;14.124;2022-12-07T10:39:12;96481.72;;;3.98;79.16
49044;BME280;34860;48.066;14.124;2022-12-07T10:42:03;96481.72;;;3.94;79.49
49044;BME280;34860;48.066;14.124;2022-12-07T10:45:09;96489.16;;;4.01;79.46
49044;BME280;34860;48.066;14.124;2022-12-07T10:48:26;96490.34;;;4.00;79.40
49044;BME280;34860;48.066;14.124;2022-12-07T10:51:41;96484.84;;;4.00;79.42
49044;BME280;34860;48.066;14.124;2022-12-07T10:54:41;96497.81;;;3.99;79.52
49044;BME280;34860;48.066;14.124;2022-12-07T11:01:32;96489.56;;;3.99;79.47
49044;BME280;34860;48.066;14.124;2022-12-07T11:04:29;96483.66;;;4.01;79.39
49044;BME280;34860;48.066;14.124;2022-12-07T11:07:27;96484.81;;;4.04;79.48
49044;BME280;34860;48.066;14.124;2022-12-07T11:10:26;96482.09;;;4.07;79.39
49044;BME280;34860;48.066;14.124;2022-12-07T11:13:28;96481.69;;;4.09;79.40
49044;BME280;34860;48.066;14.124;2022-12-07T11:16:26;96461.63;;;4.08;79.34
49044;BME280;34860;48.066;14.124;2022-12-07T11:19:32;96474.59;;;4.11;79.54
49044;BME280;34860;48.066;14.124;2022-12-07T11:22:26;96474.53;;;4.22;79.41
49044;BME280;34860;48.066;14.124;2022-12-07T11:25:22;96456.06;;;4.26;79.31
49044;BME280;34860;48.066;14.124;2022-12-07T11:28:28;96459.97;;;4.29;79.24
49044;BME280;34860;48.066;14.124;2022-12-07T11:31:27;96459.97;;;4.32;79.20
49044;BME280;34860;48.066;14.124;2022-12-07T11:34:26;96461.09;;;4.39;79.22
49044;BME280;34860;48.066;14.124;2022-12-07T11:41:23;96469.38;;;4.35;79.34
49044;BME280;34860;48.066;14.124;2022-12-07T11:44:23;96460.38;;;4.31;79.33
49044;BME280;34860;48.066;14.124;2022-12-07T11:47:17;96445.41;;;4.32;79.32
49044;BME280;34860;48.066;14.124;2022-12-07T11:50:21;96454.84;;;4.34;79.25
49044;BME280;34860;48.066;14.124;2022-12-07T11:53:17;96443.06;;;4.30;79.22
49044;BME280;34860;48.066;14.124;2022-12-07T11:56:10;96452.53;;;4.26;79.25
49044;BME280;34860;48.066;14.124;2022-12-07T11:59:04;96441.19;;;4.16;79.40
49044;BME280;34860;48.066;14.124;2022-12-07T12:02:02;96439.22;;;4.17;79.42
49044;BME280;34860;48.066;14.124;2022-12-07T12:04:58;96440.75;;;4.22;79.35
49044;BME280;34860;48.066;14.124;2022-12-07T12:07:59;96439.97;;;4.21;79.23
49044;BME280;34860;48.066;14.124;2022-12-07T12:11:18;96433.72;;;4.17;79.34
49044;BME280;34860;48.066;14.124;2022-12-07T12:14:22;96438.81;;;4.18;79.33
49044;BME280;34860;48.066;14.124;2022-12-07T12:17:31;96422.34;;;4.15;79.28
49044;BME280;34860;48.066;14.124;2022-12-07T12:20:27;96431.38;;;4.12;79.29
49044;BME280;34860;48.066;14.124;2022-12-07T12:23:21;96419.97;;;4.10;79.25
49044;BME280;34860;48.066;14.124;2022-12-07T12:26:16;96427.84;;;4.11;79.23
49044;BME280;34860;48.066;14.124;2022-12-07T12:29:07;96421.97;;;4.09;79.36
49044;BME280;34860;48.066;14.124;2022-12-07T12:32:14;96423.53;;;4.10;79.25
49044;BME280;34860;48.066;14.124;2022-12-07T12:35:27;96416.84;;;4.15;79.18
49044;BME280;34860;48.066;14.124;2022-12-07T12:38:33;96415.63;;;4.23;79.12
49044;BME280;34860;48.066;14.124;2022-12-07T12:41:55;96412.00;;;4.33;79.00
49044;BME280;34860;48.066;14.124;2022-12-07T12:45:04;96413.94;;;4.36;78.89
49044;BME280;34860;48.066;14.124;2022-12-07T12:47:58;96420.22;;;4.37;79.01
49044;BME280;34860;48.066;14.124;2022-12-07T12:50:46;96420.63;;;4.39;78.90
49044;BME280;34860;48.066;14.124;2022-12-07T12:53:36;96413.16;;;4.40;79.02
49044;BME280;34860;48.066;14.124;2022-12-07T12:56:35;96410.03;;;4.38;79.04
49044;BME280;34860;48.066;14.124;2022-12-07T12:59:29;96411.97;;;4.37;79.08
49044;BME280;34860;48.066;14.124;2022-12-07T13:02:21;96418.28;;;4.34;78.97
49044;BME280;34860;48.066;14.124;2022-12-07T13:05:18;96416.72;;;4.33;79.02
49044;BME280;34860;48.066;14.124;2022-12-07T13:08:15;96414.38;;;4.31;79.13
49044;BME280;34860;48.066;14.124;2022-12-07T13:11:20;96404.97;;;4.32;79.16
49044;BME280;34860;48.066;14.124;2022-12-07T13:14:52;96400.25;;;4.29;79.05
49044;BME280;34860;48.066;14.124;2022-12-07T13:18:01;96413.59;;;4.27;79.19
49044;BME280;34860;48.066;14.124;2022-12-07T13:20:54;96411.66;;;4.24;79.10
49044;BME280;34860;48.066;14.124;2022-12-07T13:23:54;96412.06;;;4.23;79.10
49044;BME280;34860;48.066;14.124;2022-12-07T13:26:44;96411.66;;;4.28;79.14
49044;BME280;34860;48.066;14.124;2022-12-07T13:29:36;96410.84;;;4.31;78.95
49044;BME280;34860;48.066;14.124;2022-12-07T13:32:26;96408.09;;;4.31;78.99
49044;BME280;34860;48.066;14.124;2022-12-07T13:35:29;96408.88;;;4.31;78.97
49044;BME280;34860;48.066;14.124;2022-12-07T13:38:25;96405.31;;;4.34;79.01
49044;BME280;34860;48.066;14.124;2022-12-07T13:41:16;96415.94;;;4.36;78.88
49044;BME280;34860;48.066;14.124;2022-12-07T13:44:10;96407.28;;;4.38;78.98
49044;BME280;34860;48.066;14.124;2022-12-07T13:47:05;96400.97;;;4.37;78.91
49044;BME280;34860;48.066;14.124;2022-12-07T13:49:55;96400.97;;;4.37;78.95
49044;BME280;34860;48.066;14.124;2022-12-07T13:52:43;96404.13;;;4.39;78.84
49044;BME280;34860;48.066;14.124;2022-12-07T13:55:32;96398.69;;;4.28;78.98
49044;BME280;34860;48.066;14.124;2022-12-07T13:58:21;96400.28;;;4.22;78.88
49044;BME280;34860;48.066;14.124;2022-12-07T14:01:12;96399.91;;;4.20;78.93
49044;BME280;34860;48.066;14.124;2022-12-07T14:04:19;96401.47;;;4.21;78.98
49044;BME280;34860;48.066;14.124;2022-12-07T14:07:20;96394.84;;;4.15;79.07
49044;BME280;34860;48.066;14.124;2022-12-07T14:10:24;96394.44;;;4.13;79.03
49044;BME280;34860;48.066;14.124;2022-12-07T14:13:28;96398.38;;;4.08;78.99
49044;BME280;34860;48.066;14.124;2022-12-07T14:16:24;96401.19;;;4.01;78.91
49044;BME280;34860;48.066;14.124;2022-12-07T14:19:41;96398.84;;;3.96;79.09
49044;BME280;34860;48.066;14.124;2022-12-07T14:22:34;96393.38;;;3.89;78.93
49044;BME280;34860;48.066;14.124;2022-12-07T14:25:23;96401.66;;;3.85;79.20
49044;BME280;34860;48.066;14.124;2022-12-07T14:28:26;96394.97;;;3.86;79.02
49044;BME280;34860;48.066;14.124;2022-12-07T14:31:16;96402.44;;;3.82;78.96
49044;BME280;34860;48.066;14.124;2022-12-07T14:34:13;96398.53;;;3.76;78.83
49044;BME280;34860;48.066;14.124;2022-12-07T14:37:01;96404.44;;;3.71;79.01
49044;BME280;34860;48.066;14.124;2022-12-07T14:39:49;96405.63;;;3.70;79.09
49044;BME280;34860;48.066;14.124;2022-12-07T14:42:37;96409.56;;;3.65;78.96
49044;BME280;34860;48.066;14.124;2022-12-07T14:45:26;96394.66;;;3.62;79.11
49044;BME280;34860;48.066;14.124;2022-12-07T14:48:15;96407.63;;;3.66;78.99
49044;BME280;34860;48.066;14.124;2022-12-07T14:51:25;96404.09;;;3.61;78.92
49044;BME280;34860;48.066;14.124;2022-12-07T14:54:33;96401.75;;;3.56;78.94
49044;BME280;34860;48.066;14.124;2022-12-07T14:57:21;96400.97;;;3.52;78.93
49044;BME280;34860;48.066;14.124;2022-12-07T15:00:13;96408.03;;;3.53;78.96
49044;BME280;34860;48.066;14.124;2022-12-07T15:03:02;96395.88;;;3.54;78.88
49044;BME280;34860;48.066;14.124;2022-12-07T15:05:50;96395.06;;;3.54;78.96
49044;BME280;34860;48.066;14.124;2022-12-07T15:08:40;96393.09;;;3.58;78.75
49044;BME280;34860;48.066;14.124;2022-12-07T15:11:30;96397.03;;;3.57;78.77
49044;BME280;34860;48.066;14.124;2022-12-07T15:14:18;96393.88;;;3.58;78.64
49044;BME280;34860;48.066;14.124;2022-12-07T15:17:09;96389.16;;;3.59;78.69
49044;BME280;34860;48.066;14.124;2022-12-07T15:20:03;96386.41;;;3.59;78.61
49044;BME280;34860;48.066;14.124;2022-12-07T15:22:52;96389.19;;;3.55;78.65
49044;BME280;34860;48.066;14.124;2022-12-07T15:25:42;96379.78;;;3.53;78.72
49044;BME280;34860;48.066;14.124;2022-12-07T15:28:30;96384.88;;;3.51;78.69
49044;BME280;34860;48.066;14.124;2022-12-07T15:31:18;96390.00;;;3.45;78.45
49044;BME280;34860;48.066;14.124;2022-12-07T15:34:27;96384.53;;;3.38;78.76
49044;BME280;34860;48.066;14.124;2022-12-07T15:37:18;96386.50;;;3.34;78.80
49044;BME280;34860;48.066;14.124;2022-12-07T15:40:08;96390.41;;;3.33;79.02
49044;BME280;34860;48.066;14.124;2022-12-07T15:42:57;96377.47;;;3.30;78.73
49044;BME280;34860;48.066;14.124;2022-12-07T15:45:49;96381.78;;;3.27;78.71